Terminal Aerodrome Forecast
Issued by NWS Goodland, KS

Home | Current Version | Previous Version | Text Only | Print | Product List | Glossary On
Versions: 1 2 3 4 5 6 7 8 9 10 11 12 13 14 15 16 17 18 19 20
000
FTUS43 KGLD 180520
TAFGLD
TAF
KGLD 180520Z 1806/1906 VRB05KT 1/2SM -SHSN FZFG VV003
      TEMPO 1806/1809 3SM -SHSN BR OVC005
     FM180900 VRB03KT 1/2SM FZFG VV004
     FM181500 25006KT 3SM BR BKN007
     FM182000 26004KT 6SM BR BKN020
     FM190000 24006KT P6SM SCT025 BKN100=

USA.gov is the U.S. government's official web portal to all federal, state and local government web resources and services.